Manizales, Manizales La Nubia Airport (SKMZ)

NameManizales La Nubia Airport
CityManizales
CountryColombia
ICAOSKMZ
IATAMZL
Altitude2039 m
CoordinatesGoogle Map
Live Air TrafficLiveATC.net
METARSKMZ 251700Z 30008KT 8000 BKN015 BKN060 20/14 A3034 RMK VCFG/W
2020-04-25 17:00:00 Wind: West-Northwest (300°) 4.12 m/s - Visibility: 8000 m - Temperature: 20 °C - Dew point: 14 °C - Humidity: 68.5% - Pressure: 1027.43 hPa

Sorry, no flights used the airport in this database.